This is the latest recevied weather packets stored in our database for station/object OE3MHU-12. If no packets are shown the sender has not sent any weather packets the latest 10 day(s).
| Time | Temp. | Humidity | Pressure | Rain* | Wind** | Luminosity | Snow |
|---|---|---|---|---|---|---|---|
| 1777130778 | 22.78° C | 34% | 1012.3 hPa | 0 mm | - | - | - |
| 1777128978 | 22.78° C | 37% | 1012.4 hPa | 0 mm | - | - | - |
| 1777127178 | 22.78° C | 34% | 1012.6 hPa | 0 mm | - | - | - |
| 1777125379 | 22.22° C | 34% | 1012.8 hPa | 0 mm | - | - | - |
| 1777123579 | 22.78° C | 32% | 1013.1 hPa | 0 mm | - | - | - |
| 1777121779 | 22.22° C | 31% | 1013.5 hPa | 0 mm | - | - | - |
| 1777119979 | 21.67° C | 33% | 1013.7 hPa | 0 mm | - | - | - |
| 1777118180 | 21.11° C | 35% | 1014 hPa | 0 mm | - | - | - |
| 1777116379 | 21.11° C | 34% | 1014.4 hPa | 0 mm | - | - | - |
| 1777114579 | 20.56° C | 36% | 1014.5 hPa | 0 mm | - | - | - |
| 1777112779 | 20° C | 36% | 1014.7 hPa | 0 mm | - | - | - |
| 1777110979 | 18.89° C | 40% | 1014.8 hPa | 0 mm | - | - | - |
| 1777109179 | 18.33° C | 41% | 1014.9 hPa | 0 mm | - | - | - |
| 1777107380 | 17.22° C | 45% | 1015.2 hPa | 0 mm | - | - | - |
| 1777105580 | 16.67° C | 49% | 1015.3 hPa | 0 mm | - | - | - |
| 1777103780 | 15.56° C | 52% | 1015.4 hPa | 0 mm | - | - | - |
| 1777101980 | 13.89° C | 57% | 1015.6 hPa | 0 mm | - | - | - |
| 1777100180 | 13.33° C | 59% | 1015.7 hPa | 0 mm | - | - | - |
| 1777098380 | 11.67° C | 68% | 1015.8 hPa | 0 mm | - | - | - |
| 1777096580 | 8.33° C | 75% | 1015.8 hPa | 0 mm | - | - | - |
| 1777094780 | 3.89° C | 86% | 1015.9 hPa | 0 mm | - | - | - |
| 1777092980 | 1.67° C | 84% | 1016 hPa | 0 mm | - | - | - |
| 1777091180 | 1.67° C | 84% | 1016.1 hPa | 0 mm | - | - | - |
| 1777089380 | 2.22° C | 83% | 1016 hPa | 0 mm | - | - | - |
| 1777087581 | 2.78° C | 83% | 1016.1 hPa | 0 mm | - | - | - |
* Rain latest hour (hover to see other rain measurements)
** Current wind speed in m/s (hover to see current wind gust speed)